sensor_id;sensor_type;location;lat;lon;timestamp;P1;durP1;ratioP1;P2;durP2;ratioP2
27921;SDS011;15261;50.356;10.340;2023-12-20T00:02:11;2.27;;;2.17;;
27921;SDS011;15261;50.356;10.340;2023-12-20T00:04:36;2.53;;;2.43;;
27921;SDS011;15261;50.356;10.340;2023-12-20T00:07:02;2.53;;;2.40;;
27921;SDS011;15261;50.356;10.340;2023-12-20T00:09:28;2.57;;;2.37;;
27921;SDS011;15261;50.356;10.340;2023-12-20T00:11:53;2.57;;;2.43;;
27921;SDS011;15261;50.356;10.340;2023-12-20T00:14:19;2.77;;;2.57;;
27921;SDS011;15261;50.356;10.340;2023-12-20T00:16:45;2.47;;;2.27;;
27921;SDS011;15261;50.356;10.340;2023-12-20T00:19:10;2.13;;;2.03;;
27921;SDS011;15261;50.356;10.340;2023-12-20T00:21:36;2.67;;;2.20;;
27921;SDS011;15261;50.356;10.340;2023-12-20T00:24:02;2.20;;;2.10;;
27921;SDS011;15261;50.356;10.340;2023-12-20T00:26:27;2.47;;;2.37;;
27921;SDS011;15261;50.356;10.340;2023-12-20T00:28:53;2.30;;;2.20;;
27921;SDS011;15261;50.356;10.340;2023-12-20T00:31:18;2.40;;;2.30;;
27921;SDS011;15261;50.356;10.340;2023-12-20T00:33:44;2.30;;;2.20;;
27921;SDS011;15261;50.356;10.340;2023-12-20T00:36:11;2.80;;;2.60;;
27921;SDS011;15261;50.356;10.340;2023-12-20T00:38:36;2.53;;;2.27;;
27921;SDS011;15261;50.356;10.340;2023-12-20T00:41:02;2.47;;;2.37;;
27921;SDS011;15261;50.356;10.340;2023-12-20T00:43:28;2.50;;;2.30;;
27921;SDS011;15261;50.356;10.340;2023-12-20T00:45:53;5.80;;;2.30;;
27921;SDS011;15261;50.356;10.340;2023-12-20T00:48:20;2.40;;;2.30;;
27921;SDS011;15261;50.356;10.340;2023-12-20T00:50:46;2.90;;;2.70;;
27921;SDS011;15261;50.356;10.340;2023-12-20T00:53:11;2.43;;;2.23;;
27921;SDS011;15261;50.356;10.340;2023-12-20T00:55:37;2.50;;;2.33;;
27921;SDS011;15261;50.356;10.340;2023-12-20T00:58:02;2.70;;;2.50;;
27921;SDS011;15261;50.356;10.340;2023-12-20T01:00:28;2.00;;;1.90;;
27921;SDS011;15261;50.356;10.340;2023-12-20T01:02:54;2.20;;;2.10;;
27921;SDS011;15261;50.356;10.340;2023-12-20T01:05:19;2.30;;;2.20;;
27921;SDS011;15261;50.356;10.340;2023-12-20T01:07:48;2.20;;;2.10;;
27921;SDS011;15261;50.356;10.340;2023-12-20T01:10:14;2.40;;;2.30;;
27921;SDS011;15261;50.356;10.340;2023-12-20T01:12:39;4.93;;;1.90;;
27921;SDS011;15261;50.356;10.340;2023-12-20T01:15:05;2.10;;;1.90;;
27921;SDS011;15261;50.356;10.340;2023-12-20T01:17:31;2.13;;;1.80;;
27921;SDS011;15261;50.356;10.340;2023-12-20T01:19:57;2.47;;;1.70;;
27921;SDS011;15261;50.356;10.340;2023-12-20T01:22:23;1.70;;;1.60;;
27921;SDS011;15261;50.356;10.340;2023-12-20T01:24:48;2.77;;;1.57;;
27921;SDS011;15261;50.356;10.340;2023-12-20T01:27:14;1.40;;;1.30;;
27921;SDS011;15261;50.356;10.340;2023-12-20T01:29:40;1.67;;;1.57;;
27921;SDS011;15261;50.356;10.340;2023-12-20T01:32:05;1.40;;;1.40;;
27921;SDS011;15261;50.356;10.340;2023-12-20T01:34:31;1.50;;;1.40;;
27921;SDS011;15261;50.356;10.340;2023-12-20T01:36:57;3.73;;;1.40;;
27921;SDS011;15261;50.356;10.340;2023-12-20T01:39:22;1.30;;;1.30;;
27921;SDS011;15261;50.356;10.340;2023-12-20T01:41:48;1.30;;;1.30;;
27921;SDS011;15261;50.356;10.340;2023-12-20T01:44:14;1.20;;;1.20;;
27921;SDS011;15261;50.356;10.340;2023-12-20T01:46:39;1.30;;;1.30;;
27921;SDS011;15261;50.356;10.340;2023-12-20T01:49:06;1.10;;;1.10;;
27921;SDS011;15261;50.356;10.340;2023-12-20T01:51:32;1.50;;;1.40;;
27921;SDS011;15261;50.356;10.340;2023-12-20T01:53:58;1.40;;;1.40;;
27921;SDS011;15261;50.356;10.340;2023-12-20T01:56:28;1.17;;;1.17;;
27921;SDS011;15261;50.356;10.340;2023-12-20T01:58:54;1.37;;;1.27;;
27921;SDS011;15261;50.356;10.340;2023-12-20T02:45:29;1.30;;;1.20;;
27921;SDS011;15261;50.356;10.340;2023-12-20T02:47:55;1.00;;;1.00;;
27921;SDS011;15261;50.356;10.340;2023-12-20T02:50:20;1.00;;;1.00;;
27921;SDS011;15261;50.356;10.340;2023-12-20T02:52:46;0.80;;;0.80;;
27921;SDS011;15261;50.356;10.340;2023-12-20T02:55:12;0.90;;;0.90;;
27921;SDS011;15261;50.356;10.340;2023-12-20T02:57:38;1.30;;;1.20;;
27921;SDS011;15261;50.356;10.340;2023-12-20T03:00:07;1.00;;;1.00;;
27921;SDS011;15261;50.356;10.340;2023-12-20T03:02:34;1.07;;;1.07;;
27921;SDS011;15261;50.356;10.340;2023-12-20T03:05:00;1.00;;;1.00;;
27921;SDS011;15261;50.356;10.340;2023-12-20T03:07:25;0.70;;;0.70;;
27921;SDS011;15261;50.356;10.340;2023-12-20T03:09:51;1.00;;;1.00;;
27921;SDS011;15261;50.356;10.340;2023-12-20T03:12:17;0.90;;;0.90;;
27921;SDS011;15261;50.356;10.340;2023-12-20T03:14:43;0.90;;;0.90;;
27921;SDS011;15261;50.356;10.340;2023-12-20T03:17:09;1.97;;;0.80;;
27921;SDS011;15261;50.356;10.340;2023-12-20T03:19:35;1.00;;;1.00;;
27921;SDS011;15261;50.356;10.340;2023-12-20T03:22:00;0.83;;;0.83;;
27921;SDS011;15261;50.356;10.340;2023-12-20T03:24:26;1.60;;;0.80;;
27921;SDS011;15261;50.356;10.340;2023-12-20T03:26:52;0.80;;;0.80;;
27921;SDS011;15261;50.356;10.340;2023-12-20T03:29:17;0.80;;;0.80;;
27921;SDS011;15261;50.356;10.340;2023-12-20T03:31:46;0.67;;;0.67;;
27921;SDS011;15261;50.356;10.340;2023-12-20T03:34:11;1.07;;;1.03;;
27921;SDS011;15261;50.356;10.340;2023-12-20T03:36:37;0.70;;;0.70;;
27921;SDS011;15261;50.356;10.340;2023-12-20T03:39:02;0.80;;;0.80;;
27921;SDS011;15261;50.356;10.340;2023-12-20T03:41:28;0.83;;;0.83;;
27921;SDS011;15261;50.356;10.340;2023-12-20T03:43:54;0.67;;;0.67;;
27921;SDS011;15261;50.356;10.340;2023-12-20T03:46:19;0.90;;;0.90;;
27921;SDS011;15261;50.356;10.340;2023-12-20T03:48:45;0.67;;;0.67;;
27921;SDS011;15261;50.356;10.340;2023-12-20T03:51:10;1.27;;;0.80;;
27921;SDS011;15261;50.356;10.340;2023-12-20T03:53:36;0.80;;;0.80;;
27921;SDS011;15261;50.356;10.340;2023-12-20T03:56:01;1.00;;;1.00;;
27921;SDS011;15261;50.356;10.340;2023-12-20T03:58:27;0.73;;;0.73;;
27921;SDS011;15261;50.356;10.340;2023-12-20T04:00:53;1.00;;;1.00;;
27921;SDS011;15261;50.356;10.340;2023-12-20T04:03:18;1.20;;;1.20;;
27921;SDS011;15261;50.356;10.340;2023-12-20T04:05:44;1.00;;;1.00;;
27921;SDS011;15261;50.356;10.340;2023-12-20T04:08:09;1.10;;;1.10;;
27921;SDS011;15261;50.356;10.340;2023-12-20T04:10:35;1.13;;;1.13;;
27921;SDS011;15261;50.356;10.340;2023-12-20T04:13:02;1.30;;;1.30;;
27921;SDS011;15261;50.356;10.340;2023-12-20T04:15:28;1.60;;;1.50;;
27921;SDS011;15261;50.356;10.340;2023-12-20T04:17:53;1.73;;;1.63;;
27921;SDS011;15261;50.356;10.340;2023-12-20T04:20:19;1.87;;;1.80;;
27921;SDS011;15261;50.356;10.340;2023-12-20T04:22:44;1.60;;;1.50;;
27921;SDS011;15261;50.356;10.340;2023-12-20T04:25:10;1.87;;;1.77;;
27921;SDS011;15261;50.356;10.340;2023-12-20T04:27:36;1.80;;;1.70;;
27921;SDS011;15261;50.356;10.340;2023-12-20T04:30:01;2.27;;;2.17;;
27921;SDS011;15261;50.356;10.340;2023-12-20T04:32:27;2.20;;;2.10;;
27921;SDS011;15261;50.356;10.340;2023-12-20T04:34:53;2.30;;;2.20;;
27921;SDS011;15261;50.356;10.340;2023-12-20T04:37:18;2.40;;;2.30;;
27921;SDS011;15261;50.356;10.340;2023-12-20T04:39:44;2.40;;;2.30;;
27921;SDS011;15261;50.356;10.340;2023-12-20T04:42:09;3.53;;;2.43;;
27921;SDS011;15261;50.356;10.340;2023-12-20T04:44:35;6.53;;;5.93;;
27921;SDS011;15261;50.356;10.340;2023-12-20T04:47:01;346.70;;;224.83;;
27921;SDS011;15261;50.356;10.340;2023-12-20T04:49:26;351.30;;;207.07;;
27921;SDS011;15261;50.356;10.340;2023-12-20T04:51:52;38.20;;;29.77;;
27921;SDS011;15261;50.356;10.340;2023-12-20T04:54:17;26.70;;;24.20;;
27921;SDS011;15261;50.356;10.340;2023-12-20T04:56:46;14.40;;;13.10;;
27921;SDS011;15261;50.356;10.340;2023-12-20T04:59:12;9.17;;;8.37;;
27921;SDS011;15261;50.356;10.340;2023-12-20T05:01:38;7.37;;;6.77;;
27921;SDS011;15261;50.356;10.340;2023-12-20T05:04:04;9.17;;;8.47;;
27921;SDS011;15261;50.356;10.340;2023-12-20T05:06:29;5.80;;;5.40;;
27921;SDS011;15261;50.356;10.340;2023-12-20T05:08:55;4.30;;;4.00;;
27921;SDS011;15261;50.356;10.340;2023-12-20T05:11:20;3.90;;;3.60;;
27921;SDS011;15261;50.356;10.340;2023-12-20T05:13:46;3.43;;;3.23;;
27921;SDS011;15261;50.356;10.340;2023-12-20T05:16:11;6.50;;;6.00;;
27921;SDS011;15261;50.356;10.340;2023-12-20T05:18:39;2.93;;;2.73;;
27921;SDS011;15261;50.356;10.340;2023-12-20T05:21:04;2.60;;;2.50;;
27921;SDS011;15261;50.356;10.340;2023-12-20T05:23:30;3.50;;;2.80;;
27921;SDS011;15261;50.356;10.340;2023-12-20T05:25:55;3.40;;;3.20;;
27921;SDS011;15261;50.356;10.340;2023-12-20T05:28:21;3.50;;;3.30;;
27921;SDS011;15261;50.356;10.340;2023-12-20T05:30:46;2.37;;;2.27;;
27921;SDS011;15261;50.356;10.340;2023-12-20T05:33:12;3.10;;;2.90;;
27921;SDS011;15261;50.356;10.340;2023-12-20T05:35:37;2.83;;;2.50;;
27921;SDS011;15261;50.356;10.340;2023-12-20T05:38:03;2.53;;;2.33;;
27921;SDS011;15261;50.356;10.340;2023-12-20T05:40:29;2.20;;;2.10;;
27921;SDS011;15261;50.356;10.340;2023-12-20T05:42:54;2.03;;;1.93;;
27921;SDS011;15261;50.356;10.340;2023-12-20T05:45:20;3.40;;;2.20;;
27921;SDS011;15261;50.356;10.340;2023-12-20T05:47:45;2.57;;;2.37;;
27921;SDS011;15261;50.356;10.340;2023-12-20T05:50:13;2.73;;;2.53;;
27921;SDS011;15261;50.356;10.340;2023-12-20T05:52:49;2.80;;;2.60;;
27921;SDS011;15261;50.356;10.340;2023-12-20T05:55:15;2.50;;;2.40;;
27921;SDS011;15261;50.356;10.340;2023-12-20T05:57:41;3.50;;;2.90;;
27921;SDS011;15261;50.356;10.340;2023-12-20T06:00:08;3.27;;;2.97;;
27921;SDS011;15261;50.356;10.340;2023-12-20T06:02:34;6.63;;;3.67;;
27921;SDS011;15261;50.356;10.340;2023-12-20T06:05:02;5.20;;;3.77;;
27921;SDS011;15261;50.356;10.340;2023-12-20T06:07:29;7.50;;;6.90;;
27921;SDS011;15261;50.356;10.340;2023-12-20T06:12:49;8.50;;;7.80;;
27921;SDS011;15261;50.356;10.340;2023-12-20T06:15:16;7.60;;;7.00;;
27921;SDS011;15261;50.356;10.340;2023-12-20T06:17:41;9.10;;;8.30;;
27921;SDS011;15261;50.356;10.340;2023-12-20T06:20:07;6.50;;;5.43;;
27921;SDS011;15261;50.356;10.340;2023-12-20T06:22:34;5.43;;;4.50;;
27921;SDS011;15261;50.356;10.340;2023-12-20T06:25:00;4.67;;;4.27;;
27921;SDS011;15261;50.356;10.340;2023-12-20T06:27:40;5.50;;;5.00;;
27921;SDS011;15261;50.356;10.340;2023-12-20T06:30:06;6.90;;;6.20;;
27921;SDS011;15261;50.356;10.340;2023-12-20T06:32:34;5.57;;;5.07;;
27921;SDS011;15261;50.356;10.340;2023-12-20T06:37:56;9.70;;;5.97;;
27921;SDS011;15261;50.356;10.340;2023-12-20T06:40:22;7.03;;;4.33;;
27921;SDS011;15261;50.356;10.340;2023-12-20T06:42:48;4.27;;;3.90;;
27921;SDS011;15261;50.356;10.340;2023-12-20T06:45:13;4.27;;;3.90;;
27921;SDS011;15261;50.356;10.340;2023-12-20T06:47:39;6.87;;;4.20;;
27921;SDS011;15261;50.356;10.340;2023-12-20T06:50:05;4.53;;;4.00;;
27921;SDS011;15261;50.356;10.340;2023-12-20T06:52:32;5.60;;;4.13;;
27921;SDS011;15261;50.356;10.340;2023-12-20T06:54:58;7.80;;;4.57;;
27921;SDS011;15261;50.356;10.340;2023-12-20T06:57:23;6.27;;;4.30;;
27921;SDS011;15261;50.356;10.340;2023-12-20T06:59:51;6.27;;;4.33;;
27921;SDS011;15261;50.356;10.340;2023-12-20T07:02:17;5.43;;;4.87;;
27921;SDS011;15261;50.356;10.340;2023-12-20T07:04:42;6.27;;;5.30;;
27921;SDS011;15261;50.356;10.340;2023-12-20T07:07:08;6.87;;;6.27;;
27921;SDS011;15261;50.356;10.340;2023-12-20T07:09:34;5.87;;;5.27;;
27921;SDS011;15261;50.356;10.340;2023-12-20T07:11:59;7.83;;;5.90;;
27921;SDS011;15261;50.356;10.340;2023-12-20T07:14:25;8.13;;;6.40;;
27921;SDS011;15261;50.356;10.340;2023-12-20T07:16:51;6.57;;;6.00;;
27921;SDS011;15261;50.356;10.340;2023-12-20T07:19:16;7.13;;;5.70;;
27921;SDS011;15261;50.356;10.340;2023-12-20T07:21:42;9.40;;;5.20;;
27921;SDS011;15261;50.356;10.340;2023-12-20T07:24:08;8.23;;;5.80;;
27921;SDS011;15261;50.356;10.340;2023-12-20T07:26:34;8.63;;;6.10;;
27921;SDS011;15261;50.356;10.340;2023-12-20T07:29:00;9.47;;;8.57;;
27921;SDS011;15261;50.356;10.340;2023-12-20T07:31:26;7.03;;;6.20;;
27921;SDS011;15261;50.356;10.340;2023-12-20T07:33:51;16.80;;;15.13;;
27921;SDS011;15261;50.356;10.340;2023-12-20T07:36:17;17.40;;;15.70;;
27921;SDS011;15261;50.356;10.340;2023-12-20T07:38:44;32.83;;;29.50;;
27921;SDS011;15261;50.356;10.340;2023-12-20T07:41:10;44.87;;;40.23;;
27921;SDS011;15261;50.356;10.340;2023-12-20T07:43:36;56.23;;;50.43;;
27921;SDS011;15261;50.356;10.340;2023-12-20T07:46:05;88.83;;;79.87;;
27921;SDS011;15261;50.356;10.340;2023-12-20T07:48:32;69.17;;;62.20;;
27921;SDS011;15261;50.356;10.340;2023-12-20T07:50:59;18.10;;;16.40;;
27921;SDS011;15261;50.356;10.340;2023-12-20T07:53:25;26.53;;;23.87;;
27921;SDS011;15261;50.356;10.340;2023-12-20T07:55:51;18.73;;;16.70;;
27921;SDS011;15261;50.356;10.340;2023-12-20T07:58:17;9.43;;;6.77;;
27921;SDS011;15261;50.356;10.340;2023-12-20T08:00:43;7.70;;;7.00;;
27921;SDS011;15261;50.356;10.340;2023-12-20T08:03:09;13.83;;;4.60;;
27921;SDS011;15261;50.356;10.340;2023-12-20T08:05:35;4.97;;;4.47;;
27921;SDS011;15261;50.356;10.340;2023-12-20T08:08:01;6.83;;;4.30;;
27921;SDS011;15261;50.356;10.340;2023-12-20T08:10:27;5.47;;;4.90;;
27921;SDS011;15261;50.356;10.340;2023-12-20T08:12:55;8.07;;;5.33;;
27921;SDS011;15261;50.356;10.340;2023-12-20T08:15:20;7.87;;;5.30;;
27921;SDS011;15261;50.356;10.340;2023-12-20T08:17:46;7.67;;;5.10;;
27921;SDS011;15261;50.356;10.340;2023-12-20T08:20:12;6.70;;;5.13;;
27921;SDS011;15261;50.356;10.340;2023-12-20T08:22:38;11.63;;;9.90;;
27921;SDS011;15261;50.356;10.340;2023-12-20T08:25:03;9.00;;;5.30;;
27921;SDS011;15261;50.356;10.340;2023-12-20T08:27:30;8.67;;;6.77;;
27921;SDS011;15261;50.356;10.340;2023-12-20T08:29:57;9.27;;;5.77;;
27921;SDS011;15261;50.356;10.340;2023-12-20T08:32:25;6.03;;;4.90;;
27921;SDS011;15261;50.356;10.340;2023-12-20T08:34:55;6.57;;;5.57;;
27921;SDS011;15261;50.356;10.340;2023-12-20T08:37:24;6.33;;;5.67;;
27921;SDS011;15261;50.356;10.340;2023-12-20T08:39:50;5.73;;;4.17;;
27921;SDS011;15261;50.356;10.340;2023-12-20T08:42:16;5.43;;;4.33;;
27921;SDS011;15261;50.356;10.340;2023-12-20T08:44:41;10.32;;;6.10;;
27921;SDS011;15261;50.356;10.340;2023-12-20T08:47:07;22.57;;;20.47;;
27921;SDS011;15261;50.356;10.340;2023-12-20T08:49:33;18.50;;;16.73;;
27921;SDS011;15261;50.356;10.340;2023-12-20T08:51:59;67.50;;;50.97;;
27921;SDS011;15261;50.356;10.340;2023-12-20T08:54:25;47.30;;;35.77;;
27921;SDS011;15261;50.356;10.340;2023-12-20T08:56:50;20.67;;;18.47;;
27921;SDS011;15261;50.356;10.340;2023-12-20T08:59:16;9.13;;;6.30;;
27921;SDS011;15261;50.356;10.340;2023-12-20T09:01:43;10.67;;;8.20;;
27921;SDS011;15261;50.356;10.340;2023-12-20T09:04:09;8.83;;;5.90;;
27921;SDS011;15261;50.356;10.340;2023-12-20T09:06:35;7.47;;;5.73;;
27921;SDS011;15261;50.356;10.340;2023-12-20T09:09:01;7.87;;;4.90;;
27921;SDS011;15261;50.356;10.340;2023-12-20T09:11:26;10.00;;;7.70;;
27921;SDS011;15261;50.356;10.340;2023-12-20T09:13:52;10.47;;;6.70;;
27921;SDS011;15261;50.356;10.340;2023-12-20T09:16:18;7.82;;;4.93;;
27921;SDS011;15261;50.356;10.340;2023-12-20T09:18:44;8.10;;;4.03;;
27921;SDS011;15261;50.356;10.340;2023-12-20T09:21:09;8.07;;;3.70;;
27921;SDS011;15261;50.356;10.340;2023-12-20T09:23:35;8.20;;;4.23;;
27921;SDS011;15261;50.356;10.340;2023-12-20T09:26:04;9.57;;;3.70;;
27921;SDS011;15261;50.356;10.340;2023-12-20T09:28:29;11.48;;;9.93;;
27921;SDS011;15261;50.356;10.340;2023-12-20T09:30:57;15.00;;;10.90;;
27921;SDS011;15261;50.356;10.340;2023-12-20T09:33:23;12.30;;;6.70;;
27921;SDS011;15261;50.356;10.340;2023-12-20T09:35:50;9.48;;;7.72;;
27921;SDS011;15261;50.356;10.340;2023-12-20T09:38:15;6.03;;;4.18;;
27921;SDS011;15261;50.356;10.340;2023-12-20T09:40:42;5.22;;;3.70;;
27921;SDS011;15261;50.356;10.340;2023-12-20T09:43:14;6.90;;;4.32;;
27921;SDS011;15261;50.356;10.340;2023-12-20T09:45:45;10.27;;;3.10;;
27921;SDS011;15261;50.356;10.340;2023-12-20T09:48:12;11.32;;;2.95;;
27921;SDS011;15261;50.356;10.340;2023-12-20T09:50:40;5.47;;;2.78;;
27921;SDS011;15261;50.356;10.340;2023-12-20T09:53:07;7.80;;;3.78;;
27921;SDS011;15261;50.356;10.340;2023-12-20T09:55:35;8.25;;;3.72;;
27921;SDS011;15261;50.356;10.340;2023-12-20T09:58:02;5.88;;;3.92;;
27921;SDS011;15261;50.356;10.340;2023-12-20T10:00:28;7.72;;;3.13;;
27921;SDS011;15261;50.356;10.340;2023-12-20T10:02:58;8.45;;;3.38;;
27921;SDS011;15261;50.356;10.340;2023-12-20T10:05:29;7.72;;;3.95;;
27921;SDS011;15261;50.356;10.340;2023-12-20T10:07:56;7.80;;;3.58;;
27921;SDS011;15261;50.356;10.340;2023-12-20T10:10:22;12.20;;;7.18;;
27921;SDS011;15261;50.356;10.340;2023-12-20T10:13:01;11.52;;;7.18;;
27921;SDS011;15261;50.356;10.340;2023-12-20T10:15:28;10.02;;;6.45;;
27921;SDS011;15261;50.356;10.340;2023-12-20T10:17:54;8.82;;;3.40;;
27921;SDS011;15261;50.356;10.340;2023-12-20T10:20:20;9.30;;;5.03;;
27921;SDS011;15261;50.356;10.340;2023-12-20T10:22:46;8.10;;;3.90;;
27921;SDS011;15261;50.356;10.340;2023-12-20T10:25:12;5.63;;;3.50;;
27921;SDS011;15261;50.356;10.340;2023-12-20T10:27:38;8.18;;;3.10;;
27921;SDS011;15261;50.356;10.340;2023-12-20T10:30:06;7.97;;;3.13;;
27921;SDS011;15261;50.356;10.340;2023-12-20T10:32:32;8.10;;;2.25;;
27921;SDS011;15261;50.356;10.340;2023-12-20T10:34:58;5.05;;;2.50;;
27921;SDS011;15261;50.356;10.340;2023-12-20T10:37:24;5.15;;;2.35;;
27921;SDS011;15261;50.356;10.340;2023-12-20T10:39:51;6.30;;;2.65;;
27921;SDS011;15261;50.356;10.340;2023-12-20T10:42:21;4.85;;;2.10;;
27921;SDS011;15261;50.356;10.340;2023-12-20T10:44:48;7.43;;;2.42;;
27921;SDS011;15261;50.356;10.340;2023-12-20T10:47:15;4.10;;;2.35;;
27921;SDS011;15261;50.356;10.340;2023-12-20T10:49:42;5.40;;;2.58;;
27921;SDS011;15261;50.356;10.340;2023-12-20T10:52:09;7.10;;;2.58;;
27921;SDS011;15261;50.356;10.340;2023-12-20T10:54:38;5.63;;;2.40;;
27921;SDS011;15261;50.356;10.340;2023-12-20T10:57:07;6.38;;;2.30;;
27921;SDS011;15261;50.356;10.340;2023-12-20T10:59:33;6.20;;;2.10;;
27921;SDS011;15261;50.356;10.340;2023-12-20T11:02:02;14.27;;;12.40;;
27921;SDS011;15261;50.356;10.340;2023-12-20T11:05:18;15.15;;;12.15;;
27921;SDS011;15261;50.356;10.340;2023-12-20T11:07:25;39.67;;;28.40;;
27921;SDS011;15261;50.356;10.340;2023-12-20T11:10:01;9.77;;;6.15;;
27921;SDS011;15261;50.356;10.340;2023-12-20T11:12:47;8.63;;;5.13;;
27921;SDS011;15261;50.356;10.340;2023-12-20T11:15:19;7.82;;;4.60;;
27921;SDS011;15261;50.356;10.340;2023-12-20T11:17:45;7.32;;;4.25;;
27921;SDS011;15261;50.356;10.340;2023-12-20T11:20:11;6.80;;;4.28;;
27921;SDS011;15261;50.356;10.340;2023-12-20T11:22:38;6.30;;;3.78;;
27921;SDS011;15261;50.356;10.340;2023-12-20T11:25:16;4.18;;;2.63;;
27921;SDS011;15261;50.356;10.340;2023-12-20T11:27:42;6.80;;;4.63;;
27921;SDS011;15261;50.356;10.340;2023-12-20T11:30:08;5.43;;;3.33;;
27921;SDS011;15261;50.356;10.340;2023-12-20T11:32:35;4.85;;;2.70;;
27921;SDS011;15261;50.356;10.340;2023-12-20T11:37:37;6.38;;;2.95;;
27921;SDS011;15261;50.356;10.340;2023-12-20T11:40:05;5.82;;;2.10;;
27921;SDS011;15261;50.356;10.340;2023-12-20T11:42:33;6.68;;;2.65;;
27921;SDS011;15261;50.356;10.340;2023-12-20T11:45:02;25.13;;;22.15;;
27921;SDS011;15261;50.356;10.340;2023-12-20T11:47:29;9.63;;;7.50;;
27921;SDS011;15261;50.356;10.340;2023-12-20T11:49:56;5.70;;;4.13;;
27921;SDS011;15261;50.356;10.340;2023-12-20T11:52:22;6.18;;;3.22;;
27921;SDS011;15261;50.356;10.340;2023-12-20T11:54:48;5.97;;;2.58;;
27921;SDS011;15261;50.356;10.340;2023-12-20T11:57:13;5.85;;;2.63;;
27921;SDS011;15261;50.356;10.340;2023-12-20T11:59:39;6.22;;;2.42;;
27921;SDS011;15261;50.356;10.340;2023-12-20T12:02:05;9.07;;;3.40;;
27921;SDS011;15261;50.356;10.340;2023-12-20T12:04:31;8.32;;;3.25;;
27921;SDS011;15261;50.356;10.340;2023-12-20T12:06:56;7.55;;;2.55;;
27921;SDS011;15261;50.356;10.340;2023-12-20T12:09:22;9.57;;;2.60;;
27921;SDS011;15261;50.356;10.340;2023-12-20T12:11:48;6.80;;;2.50;;
27921;SDS011;15261;50.356;10.340;2023-12-20T12:14:14;9.23;;;2.75;;
27921;SDS011;15261;50.356;10.340;2023-12-20T12:16:41;7.28;;;3.00;;
27921;SDS011;15261;50.356;10.340;2023-12-20T12:19:19;13.20;;;2.88;;
27921;SDS011;15261;50.356;10.340;2023-12-20T12:21:49;10.65;;;3.30;;
27921;SDS011;15261;50.356;10.340;2023-12-20T12:24:19;8.07;;;2.78;;
27921;SDS011;15261;50.356;10.340;2023-12-20T12:26:51;7.72;;;3.05;;
27921;SDS011;15261;50.356;10.340;2023-12-20T12:29:17;9.43;;;2.72;;
27921;SDS011;15261;50.356;10.340;2023-12-20T12:31:43;7.57;;;2.83;;
27921;SDS011;15261;50.356;10.340;2023-12-20T12:34:09;7.88;;;3.00;;
27921;SDS011;15261;50.356;10.340;2023-12-20T12:36:34;8.77;;;2.83;;
27921;SDS011;15261;50.356;10.340;2023-12-20T12:39:03;7.53;;;2.90;;
27921;SDS011;15261;50.356;10.340;2023-12-20T12:41:30;5.82;;;2.50;;
27921;SDS011;15261;50.356;10.340;2023-12-20T12:43:56;10.90;;;2.90;;
27921;SDS011;15261;50.356;10.340;2023-12-20T12:46:21;8.50;;;2.72;;
27921;SDS011;15261;50.356;10.340;2023-12-20T12:48:47;10.45;;;2.72;;
27921;SDS011;15261;50.356;10.340;2023-12-20T12:51:14;8.60;;;3.10;;
27921;SDS011;15261;50.356;10.340;2023-12-20T12:53:40;8.15;;;2.65;;
27921;SDS011;15261;50.356;10.340;2023-12-20T12:56:05;8.25;;;2.53;;
27921;SDS011;15261;50.356;10.340;2023-12-20T12:58:32;8.15;;;2.70;;
27921;SDS011;15261;50.356;10.340;2023-12-20T13:00:57;7.63;;;2.45;;
27921;SDS011;15261;50.356;10.340;2023-12-20T13:03:23;8.27;;;2.65;;
27921;SDS011;15261;50.356;10.340;2023-12-20T13:05:49;9.18;;;4.13;;
27921;SDS011;15261;50.356;10.340;2023-12-20T13:08:15;7.07;;;2.65;;
27921;SDS011;15261;50.356;10.340;2023-12-20T13:10:42;8.60;;;2.83;;
27921;SDS011;15261;50.356;10.340;2023-12-20T13:13:07;5.93;;;2.38;;
27921;SDS011;15261;50.356;10.340;2023-12-20T13:15:33;7.53;;;3.17;;
27921;SDS011;15261;50.356;10.340;2023-12-20T13:17:59;7.90;;;2.40;;
27921;SDS011;15261;50.356;10.340;2023-12-20T13:20:25;7.65;;;2.65;;
27921;SDS011;15261;50.356;10.340;2023-12-20T13:22:51;8.02;;;2.80;;
27921;SDS011;15261;50.356;10.340;2023-12-20T13:25:17;5.50;;;2.50;;
27921;SDS011;15261;50.356;10.340;2023-12-20T13:27:43;18.85;;;13.43;;
27921;SDS011;15261;50.356;10.340;2023-12-20T13:30:09;15.32;;;7.75;;
27921;SDS011;15261;50.356;10.340;2023-12-20T13:32:37;10.43;;;4.40;;
27921;SDS011;15261;50.356;10.340;2023-12-20T13:35:03;5.47;;;3.05;;
27921;SDS011;15261;50.356;10.340;2023-12-20T13:37:29;7.72;;;2.50;;
27921;SDS011;15261;50.356;10.340;2023-12-20T13:39:55;4.60;;;2.42;;
27921;SDS011;15261;50.356;10.340;2023-12-20T13:42:20;6.22;;;2.53;;
27921;SDS011;15261;50.356;10.340;2023-12-20T13:44:46;7.63;;;2.90;;
27921;SDS011;15261;50.356;10.340;2023-12-20T13:47:12;6.47;;;3.10;;
27921;SDS011;15261;50.356;10.340;2023-12-20T13:49:37;7.50;;;2.92;;
27921;SDS011;15261;50.356;10.340;2023-12-20T13:52:04;5.65;;;2.65;;
27921;SDS011;15261;50.356;10.340;2023-12-20T13:54:30;6.95;;;3.03;;
27921;SDS011;15261;50.356;10.340;2023-12-20T13:56:56;7.00;;;3.60;;
27921;SDS011;15261;50.356;10.340;2023-12-20T13:59:23;8.18;;;3.10;;
27921;SDS011;15261;50.356;10.340;2023-12-20T14:01:48;8.80;;;3.83;;
27921;SDS011;15261;50.356;10.340;2023-12-20T14:04:15;7.13;;;3.78;;
27921;SDS011;15261;50.356;10.340;2023-12-20T14:06:41;8.77;;;3.35;;
27921;SDS011;15261;50.356;10.340;2023-12-20T14:09:07;10.02;;;3.88;;
27921;SDS011;15261;50.356;10.340;2023-12-20T14:11:33;9.68;;;4.07;;
27921;SDS011;15261;50.356;10.340;2023-12-20T14:13:59;12.25;;;3.35;;
27921;SDS011;15261;50.356;10.340;2023-12-20T14:16:26;8.82;;;3.00;;
27921;SDS011;15261;50.356;10.340;2023-12-20T14:18:52;8.60;;;2.97;;
27921;SDS011;15261;50.356;10.340;2023-12-20T14:21:22;7.13;;;3.10;;
27921;SDS011;15261;50.356;10.340;2023-12-20T14:23:49;6.50;;;2.58;;
27921;SDS011;15261;50.356;10.340;2023-12-20T14:26:15;6.45;;;3.17;;
27921;SDS011;15261;50.356;10.340;2023-12-20T14:28:41;6.85;;;2.80;;
27921;SDS011;15261;50.356;10.340;2023-12-20T14:31:07;11.20;;;2.90;;
27921;SDS011;15261;50.356;10.340;2023-12-20T14:33:37;9.65;;;2.80;;
27921;SDS011;15261;50.356;10.340;2023-12-20T14:36:04;8.35;;;2.85;;
27921;SDS011;15261;50.356;10.340;2023-12-20T14:38:33;11.70;;;2.97;;
27921;SDS011;15261;50.356;10.340;2023-12-20T14:41:00;7.47;;;3.05;;
27921;SDS011;15261;50.356;10.340;2023-12-20T14:43:28;8.02;;;2.80;;
27921;SDS011;15261;50.356;10.340;2023-12-20T14:45:54;7.38;;;2.90;;
27921;SDS011;15261;50.356;10.340;2023-12-20T14:48:20;10.95;;;3.00;;
27921;SDS011;15261;50.356;10.340;2023-12-20T14:50:46;6.75;;;2.83;;
27921;SDS011;15261;50.356;10.340;2023-12-20T14:53:14;10.80;;;3.00;;
27921;SDS011;15261;50.356;10.340;2023-12-20T14:55:44;6.53;;;2.67;;
27921;SDS011;15261;50.356;10.340;2023-12-20T14:58:09;10.10;;;3.25;;
27921;SDS011;15261;50.356;10.340;2023-12-20T15:00:35;10.68;;;3.10;;
27921;SDS011;15261;50.356;10.340;2023-12-20T15:03:01;7.07;;;2.92;;
27921;SDS011;15261;50.356;10.340;2023-12-20T15:05:29;11.98;;;2.80;;
27921;SDS011;15261;50.356;10.340;2023-12-20T15:07:55;7.30;;;2.97;;
27921;SDS011;15261;50.356;10.340;2023-12-20T15:10:23;8.15;;;2.63;;
27921;SDS011;15261;50.356;10.340;2023-12-20T15:12:49;7.70;;;2.83;;
27921;SDS011;15261;50.356;10.340;2023-12-20T15:15:15;8.23;;;2.78;;
27921;SDS011;15261;50.356;10.340;2023-12-20T15:17:41;5.03;;;2.85;;
27921;SDS011;15261;50.356;10.340;2023-12-20T15:20:07;7.50;;;2.80;;